sensor_id;sensor_type;location;lat;lon;timestamp;pressure;altitude;pressure_sealevel;temperature;humidity
4570;BME280;2297;51.442;6.996;2022-12-20T00:00:44;100242.44;;;10.92;53.53
4570;BME280;2297;51.442;6.996;2022-12-20T00:03:11;100249.16;;;11.05;53.40
4570;BME280;2297;51.442;6.996;2022-12-20T00:05:37;100247.88;;;10.86;53.67
4570;BME280;2297;51.442;6.996;2022-12-20T00:08:05;100238.41;;;11.14;53.10
4570;BME280;2297;51.442;6.996;2022-12-20T00:10:35;100231.47;;;11.09;52.85
4570;BME280;2297;51.442;6.996;2022-12-20T00:13:01;100226.72;;;10.87;53.47
4570;BME280;2297;51.442;6.996;2022-12-20T00:15:30;100229.84;;;11.03;53.45
4570;BME280;2297;51.442;6.996;2022-12-20T00:17:56;100225.16;;;11.16;52.80
4570;BME280;2297;51.442;6.996;2022-12-20T00:20:24;100217.75;;;10.93;53.32
4570;BME280;2297;51.442;6.996;2022-12-20T00:22:51;100208.53;;;11.12;52.79
4570;BME280;2297;51.442;6.996;2022-12-20T00:25:18;100219.00;;;11.16;53.23
4570;BME280;2297;51.442;6.996;2022-12-20T00:27:45;100210.47;;;11.03;53.25
4570;BME280;2297;51.442;6.996;2022-12-20T00:30:12;100205.31;;;11.34;52.72
4570;BME280;2297;51.442;6.996;2022-12-20T00:36:04;100202.81;;;11.28;52.59
4570;BME280;2297;51.442;6.996;2022-12-20T00:38:31;100202.16;;;11.20;53.12
4570;BME280;2297;51.442;6.996;2022-12-20T00:40:59;100197.44;;;10.96;53.59
4570;BME280;2297;51.442;6.996;2022-12-20T00:43:26;100194.91;;;11.28;53.17
4570;BME280;2297;51.442;6.996;2022-12-20T00:45:52;100192.00;;;11.37;52.70
4570;BME280;2297;51.442;6.996;2022-12-20T00:48:19;100192.34;;;10.87;53.75
4570;BME280;2297;51.442;6.996;2022-12-20T00:50:46;100177.69;;;11.11;53.30
4570;BME280;2297;51.442;6.996;2022-12-20T00:53:14;100187.41;;;11.09;53.36
4570;BME280;2297;51.442;6.996;2022-12-20T00:55:41;100190.53;;;11.27;52.82
4570;BME280;2297;51.442;6.996;2022-12-20T00:58:08;100188.91;;;11.21;52.83
4570;BME280;2297;51.442;6.996;2022-12-20T01:00:47;100196.41;;;11.02;53.71
4570;BME280;2297;51.442;6.996;2022-12-20T01:03:14;100192.41;;;10.86;54.20
4570;BME280;2297;51.442;6.996;2022-12-20T01:05:51;100188.22;;;11.13;53.51
4570;BME280;2297;51.442;6.996;2022-12-20T01:08:20;100199.56;;;11.18;53.45
4570;BME280;2297;51.442;6.996;2022-12-20T01:10:46;100193.47;;;11.14;53.54
4570;BME280;2297;51.442;6.996;2022-12-20T01:16:28;100192.47;;;11.19;53.13
4570;BME280;2297;51.442;6.996;2022-12-20T01:18:55;100178.75;;;11.04;53.61
4570;BME280;2297;51.442;6.996;2022-12-20T01:21:23;100187.56;;;11.03;53.61
4570;BME280;2297;51.442;6.996;2022-12-20T01:23:53;100175.25;;;11.02;53.62
4570;BME280;2297;51.442;6.996;2022-12-20T01:26:22;100172.09;;;10.88;53.96
4570;BME280;2297;51.442;6.996;2022-12-20T01:28:52;100171.34;;;11.19;53.15
4570;BME280;2297;51.442;6.996;2022-12-20T01:31:19;100171.44;;;11.16;53.25
4570;BME280;2297;51.442;6.996;2022-12-20T01:33:47;100190.53;;;10.89;54.14
4570;BME280;2297;51.442;6.996;2022-12-20T01:36:16;100178.09;;;10.94;54.15
4570;BME280;2297;51.442;6.996;2022-12-20T01:38:43;100171.44;;;11.16;53.59
4570;BME280;2297;51.442;6.996;2022-12-20T01:41:13;100176.34;;;10.93;54.28
4570;BME280;2297;51.442;6.996;2022-12-20T01:43:46;100158.13;;;10.82;54.34
4570;BME280;2297;51.442;6.996;2022-12-20T01:46:13;100182.59;;;11.27;53.08
4570;BME280;2297;51.442;6.996;2022-12-20T01:48:41;100166.75;;;11.25;53.32
4570;BME280;2297;51.442;6.996;2022-12-20T01:51:09;100169.81;;;11.08;53.59
4570;BME280;2297;51.442;6.996;2022-12-20T01:53:36;100170.41;;;11.21;53.46
4570;BME280;2297;51.442;6.996;2022-12-20T01:56:04;100161.16;;;11.03;54.34
4570;BME280;2297;51.442;6.996;2022-12-20T01:58:34;100151.44;;;11.04;54.07
4570;BME280;2297;51.442;6.996;2022-12-20T02:01:01;100156.81;;;11.01;54.13
4570;BME280;2297;51.442;6.996;2022-12-20T02:03:28;100152.38;;;11.01;54.85
4570;BME280;2297;51.442;6.996;2022-12-20T02:05:56;100158.16;;;11.17;54.43
4570;BME280;2297;51.442;6.996;2022-12-20T02:08:22;100158.97;;;11.21;54.31
4570;BME280;2297;51.442;6.996;2022-12-20T02:10:59;100161.81;;;11.13;54.94
4570;BME280;2297;51.442;6.996;2022-12-20T02:13:39;100168.41;;;10.93;55.53
4570;BME280;2297;51.442;6.996;2022-12-20T02:16:12;100149.69;;;11.03;55.50
4570;BME280;2297;51.442;6.996;2022-12-20T02:18:45;100140.16;;;11.31;54.57
4570;BME280;2297;51.442;6.996;2022-12-20T02:21:27;100136.63;;;11.33;54.48
4570;BME280;2297;51.442;6.996;2022-12-20T02:24:18;100129.44;;;11.03;55.84
4570;BME280;2297;51.442;6.996;2022-12-20T02:30:15;100150.19;;;11.19;55.55
4570;BME280;2297;51.442;6.996;2022-12-20T02:32:51;100140.56;;;11.18;55.64
4570;BME280;2297;51.442;6.996;2022-12-20T02:35:21;100140.94;;;11.01;55.81
4570;BME280;2297;51.442;6.996;2022-12-20T02:37:50;100145.69;;;11.22;55.54
4570;BME280;2297;51.442;6.996;2022-12-20T02:40:19;100150.38;;;11.12;55.62
4570;BME280;2297;51.442;6.996;2022-12-20T02:42:48;100151.84;;;11.23;55.40
4570;BME280;2297;51.442;6.996;2022-12-20T02:45:19;100142.94;;;10.91;56.70
4570;BME280;2297;51.442;6.996;2022-12-20T02:47:50;100132.84;;;11.08;56.38
4570;BME280;2297;51.442;6.996;2022-12-20T02:50:21;100127.78;;;10.99;56.98
4570;BME280;2297;51.442;6.996;2022-12-20T02:52:51;100134.06;;;10.93;57.31
4570;BME280;2297;51.442;6.996;2022-12-20T02:55:20;100127.88;;;10.94;57.65
4570;BME280;2297;51.442;6.996;2022-12-20T02:57:57;100130.47;;;10.96;57.64
4570;BME280;2297;51.442;6.996;2022-12-20T03:00:28;100145.00;;;10.79;57.96
4570;BME280;2297;51.442;6.996;2022-12-20T03:02:57;100153.13;;;10.70;58.46
4570;BME280;2297;51.442;6.996;2022-12-20T03:05:44;100137.16;;;10.76;58.24
4570;BME280;2297;51.442;6.996;2022-12-20T03:08:12;100134.94;;;10.94;57.95
4570;BME280;2297;51.442;6.996;2022-12-20T03:10:38;100131.00;;;10.38;59.45
4570;BME280;2297;51.442;6.996;2022-12-20T03:13:05;100127.81;;;10.61;59.13
4570;BME280;2297;51.442;6.996;2022-12-20T03:15:33;100143.00;;;10.52;59.87
4570;BME280;2297;51.442;6.996;2022-12-20T03:18:00;100142.72;;;10.64;59.51
4570;BME280;2297;51.442;6.996;2022-12-20T03:20:27;100169.63;;;10.80;59.40
4570;BME280;2297;51.442;6.996;2022-12-20T03:22:53;100162.47;;;10.47;60.79
4570;BME280;2297;51.442;6.996;2022-12-20T03:25:20;100164.72;;;10.63;60.24
4570;BME280;2297;51.442;6.996;2022-12-20T03:27:47;100150.09;;;10.50;61.01
4570;BME280;2297;51.442;6.996;2022-12-20T03:30:14;100151.22;;;10.39;61.05
4570;BME280;2297;51.442;6.996;2022-12-20T03:32:42;100155.31;;;10.53;61.30
4570;BME280;2297;51.442;6.996;2022-12-20T03:35:09;100171.28;;;10.46;61.08
4570;BME280;2297;51.442;6.996;2022-12-20T03:37:35;100137.84;;;10.45;61.10
4570;BME280;2297;51.442;6.996;2022-12-20T03:40:02;100154.63;;;10.04;62.26
4570;BME280;2297;51.442;6.996;2022-12-20T03:42:29;100152.75;;;10.07;62.31
4570;BME280;2297;51.442;6.996;2022-12-20T03:44:56;100155.94;;;10.23;61.96
4570;BME280;2297;51.442;6.996;2022-12-20T03:47:22;100131.13;;;10.32;62.05
4570;BME280;2297;51.442;6.996;2022-12-20T03:49:51;100132.78;;;10.36;61.69
4570;BME280;2297;51.442;6.996;2022-12-20T03:52:17;100135.28;;;10.03;62.72
4570;BME280;2297;51.442;6.996;2022-12-20T03:54:44;100127.47;;;10.39;61.67
4570;BME280;2297;51.442;6.996;2022-12-20T03:57:11;100122.53;;;10.24;61.80
4570;BME280;2297;51.442;6.996;2022-12-20T03:59:37;100123.22;;;10.32;61.62
4570;BME280;2297;51.442;6.996;2022-12-20T04:02:04;100120.56;;;10.32;61.76
4570;BME280;2297;51.442;6.996;2022-12-20T04:04:31;100116.59;;;10.52;60.90
4570;BME280;2297;51.442;6.996;2022-12-20T04:06:58;100110.91;;;10.31;61.36
4570;BME280;2297;51.442;6.996;2022-12-20T04:09:25;100122.59;;;10.21;62.29
4570;BME280;2297;51.442;6.996;2022-12-20T04:11:52;100129.59;;;10.22;62.67
4570;BME280;2297;51.442;6.996;2022-12-20T04:14:18;100117.28;;;10.22;62.69
4570;BME280;2297;51.442;6.996;2022-12-20T04:16:45;100121.50;;;10.29;62.53
4570;BME280;2297;51.442;6.996;2022-12-20T04:19:12;100120.34;;;10.41;62.12
4570;BME280;2297;51.442;6.996;2022-12-20T04:21:38;100124.25;;;10.25;62.61
4570;BME280;2297;51.442;6.996;2022-12-20T04:24:07;100120.91;;;10.17;62.86
4570;BME280;2297;51.442;6.996;2022-12-20T04:26:35;100110.13;;;10.26;63.29
4570;BME280;2297;51.442;6.996;2022-12-20T04:29:01;100113.91;;;10.16;63.13
4570;BME280;2297;51.442;6.996;2022-12-20T04:31:28;100108.75;;;10.09;63.45
4570;BME280;2297;51.442;6.996;2022-12-20T04:33:55;100101.69;;;10.11;63.82
4570;BME280;2297;51.442;6.996;2022-12-20T04:36:21;100109.25;;;10.27;63.22
4570;BME280;2297;51.442;6.996;2022-12-20T04:38:48;100108.63;;;10.16;63.73
4570;BME280;2297;51.442;6.996;2022-12-20T04:41:16;100120.16;;;10.11;63.57
4570;BME280;2297;51.442;6.996;2022-12-20T04:43:48;100122.94;;;10.05;63.80
4570;BME280;2297;51.442;6.996;2022-12-20T04:46:15;100121.31;;;9.98;64.26
4570;BME280;2297;51.442;6.996;2022-12-20T04:48:42;100117.41;;;10.16;64.08
4570;BME280;2297;51.442;6.996;2022-12-20T04:51:08;100124.09;;;9.90;64.80
4570;BME280;2297;51.442;6.996;2022-12-20T04:53:35;100117.13;;;9.88;65.23
4570;BME280;2297;51.442;6.996;2022-12-20T04:56:16;100119.59;;;9.97;65.39
4570;BME280;2297;51.442;6.996;2022-12-20T04:58:44;100128.47;;;9.90;65.79
4570;BME280;2297;51.442;6.996;2022-12-20T05:01:11;100115.56;;;10.20;64.79
4570;BME280;2297;51.442;6.996;2022-12-20T05:03:38;100110.63;;;10.04;65.35
4570;BME280;2297;51.442;6.996;2022-12-20T05:06:05;100107.47;;;9.87;65.84
4570;BME280;2297;51.442;6.996;2022-12-20T05:08:33;100099.47;;;9.90;65.87
4570;BME280;2297;51.442;6.996;2022-12-20T05:11:00;100103.06;;;9.86;65.97
4570;BME280;2297;51.442;6.996;2022-12-20T05:13:28;100110.34;;;10.17;65.54
4570;BME280;2297;51.442;6.996;2022-12-20T05:16:00;100102.47;;;10.15;65.26
4570;BME280;2297;51.442;6.996;2022-12-20T05:18:27;100095.41;;;10.17;65.44
4570;BME280;2297;51.442;6.996;2022-12-20T05:20:55;100082.03;;;10.25;65.10
4570;BME280;2297;51.442;6.996;2022-12-20T05:23:40;100075.81;;;10.27;64.96
4570;BME280;2297;51.442;6.996;2022-12-20T05:26:25;100056.16;;;10.41;64.27
4570;BME280;2297;51.442;6.996;2022-12-20T05:28:55;100060.41;;;10.46;63.51
4570;BME280;2297;51.442;6.996;2022-12-20T05:31:22;100067.47;;;10.44;63.64
4570;BME280;2297;51.442;6.996;2022-12-20T05:33:48;100061.91;;;10.19;64.57
4570;BME280;2297;51.442;6.996;2022-12-20T05:36:15;100051.41;;;10.54;63.05
4570;BME280;2297;51.442;6.996;2022-12-20T05:38:42;100057.66;;;10.50;62.96
4570;BME280;2297;51.442;6.996;2022-12-20T05:41:09;100052.38;;;10.13;63.60
4570;BME280;2297;51.442;6.996;2022-12-20T05:43:35;100050.91;;;10.00;63.63
4570;BME280;2297;51.442;6.996;2022-12-20T05:46:19;100054.75;;;10.62;61.87
4570;BME280;2297;51.442;6.996;2022-12-20T05:48:45;100052.38;;;10.50;62.43
4570;BME280;2297;51.442;6.996;2022-12-20T05:51:12;100053.44;;;10.78;61.19
4570;BME280;2297;51.442;6.996;2022-12-20T05:53:38;100060.25;;;10.53;61.64
4570;BME280;2297;51.442;6.996;2022-12-20T05:56:05;100057.44;;;10.23;62.36
4570;BME280;2297;51.442;6.996;2022-12-20T05:58:32;100053.00;;;10.61;61.34
4570;BME280;2297;51.442;6.996;2022-12-20T06:00:59;100049.47;;;10.62;61.24
4570;BME280;2297;51.442;6.996;2022-12-20T06:03:28;100045.84;;;10.66;60.68
4570;BME280;2297;51.442;6.996;2022-12-20T06:05:55;100046.13;;;10.90;60.41
4570;BME280;2297;51.442;6.996;2022-12-20T06:08:22;100038.56;;;10.74;60.35
4570;BME280;2297;51.442;6.996;2022-12-20T06:10:49;100044.78;;;10.37;61.18
4570;BME280;2297;51.442;6.996;2022-12-20T06:13:17;100044.91;;;10.69;60.67
4570;BME280;2297;51.442;6.996;2022-12-20T06:15:43;100042.66;;;10.52;60.92
4570;BME280;2297;51.442;6.996;2022-12-20T06:18:10;100036.69;;;10.79;60.00
4570;BME280;2297;51.442;6.996;2022-12-20T06:20:39;100044.00;;;10.68;60.07
4570;BME280;2297;51.442;6.996;2022-12-20T06:23:06;100038.56;;;10.74;59.95
4570;BME280;2297;51.442;6.996;2022-12-20T06:25:33;100044.47;;;10.50;60.42
4570;BME280;2297;51.442;6.996;2022-12-20T06:28:01;100034.94;;;10.78;59.92
4570;BME280;2297;51.442;6.996;2022-12-20T06:30:27;100036.84;;;10.73;59.77
4570;BME280;2297;51.442;6.996;2022-12-20T06:32:54;100041.63;;;10.92;59.18
4570;BME280;2297;51.442;6.996;2022-12-20T06:35:21;100047.88;;;10.89;59.11
4570;BME280;2297;51.442;6.996;2022-12-20T06:37:48;100049.91;;;10.79;59.19
4570;BME280;2297;51.442;6.996;2022-12-20T06:40:15;100050.09;;;10.72;59.25
4570;BME280;2297;51.442;6.996;2022-12-20T06:42:42;100037.72;;;10.74;59.10
4570;BME280;2297;51.442;6.996;2022-12-20T06:45:09;100028.41;;;10.59;59.43
4570;BME280;2297;51.442;6.996;2022-12-20T06:47:36;100019.66;;;10.57;60.01
4570;BME280;2297;51.442;6.996;2022-12-20T06:50:04;100015.56;;;10.79;59.17
4570;BME280;2297;51.442;6.996;2022-12-20T06:52:31;100022.03;;;10.68;59.79
4570;BME280;2297;51.442;6.996;2022-12-20T06:54:59;100019.56;;;10.60;59.75
4570;BME280;2297;51.442;6.996;2022-12-20T06:57:25;100000.09;;;10.64;59.67
4570;BME280;2297;51.442;6.996;2022-12-20T06:59:52;100019.72;;;10.54;59.72
4570;BME280;2297;51.442;6.996;2022-12-20T07:02:19;100014.28;;;10.60;59.55
4570;BME280;2297;51.442;6.996;2022-12-20T07:04:45;100004.03;;;10.82;59.15
4570;BME280;2297;51.442;6.996;2022-12-20T07:07:12;100002.06;;;10.56;59.63
4570;BME280;2297;51.442;6.996;2022-12-20T07:09:39;100004.25;;;10.40;60.24
4570;BME280;2297;51.442;6.996;2022-12-20T07:12:08;99990.56;;;10.58;59.47
4570;BME280;2297;51.442;6.996;2022-12-20T07:14:35;99998.41;;;10.94;58.25
4570;BME280;2297;51.442;6.996;2022-12-20T07:17:02;100000.19;;;10.61;59.32
4570;BME280;2297;51.442;6.996;2022-12-20T07:19:28;99993.47;;;10.82;58.22
4570;BME280;2297;51.442;6.996;2022-12-20T07:21:55;99998.91;;;10.76;58.46
4570;BME280;2297;51.442;6.996;2022-12-20T07:24:22;99988.84;;;10.90;57.96
4570;BME280;2297;51.442;6.996;2022-12-20T07:26:48;99998.78;;;10.47;59.34
4570;BME280;2297;51.442;6.996;2022-12-20T07:29:16;99987.31;;;10.81;58.16
4570;BME280;2297;51.442;6.996;2022-12-20T07:31:43;99989.84;;;10.86;58.43
4570;BME280;2297;51.442;6.996;2022-12-20T07:34:10;99991.88;;;10.76;58.66
4570;BME280;2297;51.442;6.996;2022-12-20T07:36:37;100012.81;;;10.82;58.49
4570;BME280;2297;51.442;6.996;2022-12-20T07:39:04;99992.38;;;10.56;59.01
4570;BME280;2297;51.442;6.996;2022-12-20T07:41:30;99993.81;;;10.68;58.50
4570;BME280;2297;51.442;6.996;2022-12-20T07:43:58;99982.66;;;10.91;57.77
4570;BME280;2297;51.442;6.996;2022-12-20T07:46:26;99975.53;;;10.95;57.08
4570;BME280;2297;51.442;6.996;2022-12-20T07:48:54;99974.69;;;10.93;56.98
4570;BME280;2297;51.442;6.996;2022-12-20T07:51:24;99971.09;;;10.62;58.17
4570;BME280;2297;51.442;6.996;2022-12-20T07:53:55;99980.47;;;10.74;58.04
4570;BME280;2297;51.442;6.996;2022-12-20T07:56:25;99977.31;;;10.93;57.44
4570;BME280;2297;51.442;6.996;2022-12-20T07:58:54;99970.50;;;10.84;57.59
4570;BME280;2297;51.442;6.996;2022-12-20T08:01:23;99969.25;;;10.99;57.04
4570;BME280;2297;51.442;6.996;2022-12-20T08:03:55;99969.56;;;10.87;57.27
4570;BME280;2297;51.442;6.996;2022-12-20T08:06:24;99976.34;;;10.64;58.04
4570;BME280;2297;51.442;6.996;2022-12-20T08:08:53;99988.78;;;10.92;57.30
4570;BME280;2297;51.442;6.996;2022-12-20T08:11:22;99976.97;;;11.05;56.93
4570;BME280;2297;51.442;6.996;2022-12-20T08:13:50;99983.25;;;11.01;57.00
4570;BME280;2297;51.442;6.996;2022-12-20T08:16:17;99990.78;;;10.84;57.18
4570;BME280;2297;51.442;6.996;2022-12-20T08:18:43;99987.44;;;11.10;57.03
4570;BME280;2297;51.442;6.996;2022-12-20T08:21:11;99984.59;;;10.85;57.29
4570;BME280;2297;51.442;6.996;2022-12-20T08:23:39;99977.22;;;10.96;56.85
4570;BME280;2297;51.442;6.996;2022-12-20T08:26:05;99977.47;;;11.20;56.22
4570;BME280;2297;51.442;6.996;2022-12-20T08:28:33;99965.84;;;11.25;56.27
4570;BME280;2297;51.442;6.996;2022-12-20T08:31:00;99958.25;;;11.14;56.13
4570;BME280;2297;51.442;6.996;2022-12-20T08:33:27;99969.16;;;11.02;56.73
4570;BME280;2297;51.442;6.996;2022-12-20T08:35:57;99973.13;;;10.86;57.27
4570;BME280;2297;51.442;6.996;2022-12-20T08:38:26;99958.41;;;11.08;56.65
4570;BME280;2297;51.442;6.996;2022-12-20T08:40:53;99959.00;;;10.87;56.97
4570;BME280;2297;51.442;6.996;2022-12-20T08:43:20;99959.25;;;10.77;57.69
4570;BME280;2297;51.442;6.996;2022-12-20T08:46:23;99962.38;;;10.92;57.07
4570;BME280;2297;51.442;6.996;2022-12-20T08:48:51;99965.38;;;11.12;56.79
4570;BME280;2297;51.442;6.996;2022-12-20T08:51:17;99969.03;;;11.05;56.67
4570;BME280;2297;51.442;6.996;2022-12-20T08:53:45;99974.25;;;11.08;56.26
4570;BME280;2297;51.442;6.996;2022-12-20T08:56:14;99974.44;;;11.02;56.73
4570;BME280;2297;51.442;6.996;2022-12-20T08:58:42;99967.34;;;11.03;56.48
4570;BME280;2297;51.442;6.996;2022-12-20T09:01:11;99974.53;;;10.99;57.15
4570;BME280;2297;51.442;6.996;2022-12-20T09:03:38;99961.22;;;11.02;56.60
4570;BME280;2297;51.442;6.996;2022-12-20T09:06:06;99978.16;;;11.26;55.61
4570;BME280;2297;51.442;6.996;2022-12-20T09:08:33;99968.13;;;11.39;55.66
4570;BME280;2297;51.442;6.996;2022-12-20T09:11:07;99972.53;;;11.07;56.56
4570;BME280;2297;51.442;6.996;2022-12-20T09:13:34;99965.84;;;10.94;56.72
4570;BME280;2297;51.442;6.996;2022-12-20T09:16:01;99971.34;;;11.19;56.07
4570;BME280;2297;51.442;6.996;2022-12-20T09:18:28;99974.19;;;11.11;56.29
4570;BME280;2297;51.442;6.996;2022-12-20T09:20:58;99965.41;;;11.41;55.83
4570;BME280;2297;51.442;6.996;2022-12-20T09:23:26;99969.28;;;11.29;56.09
4570;BME280;2297;51.442;6.996;2022-12-20T09:25:53;99965.38;;;11.12;56.33
4570;BME280;2297;51.442;6.996;2022-12-20T09:28:21;99971.13;;;11.27;55.96
4570;BME280;2297;51.442;6.996;2022-12-20T09:31:20;99977.34;;;11.54;55.24
4570;BME280;2297;51.442;6.996;2022-12-20T09:33:47;99983.69;;;11.48;55.30
4570;BME280;2297;51.442;6.996;2022-12-20T09:36:16;99983.66;;;11.20;56.07
4570;BME280;2297;51.442;6.996;2022-12-20T09:38:44;99987.34;;;11.44;56.21
4570;BME280;2297;51.442;6.996;2022-12-20T09:41:21;99976.38;;;11.28;56.35
4570;BME280;2297;51.442;6.996;2022-12-20T09:43:51;99973.22;;;11.45;56.57
4570;BME280;2297;51.442;6.996;2022-12-20T09:46:18;99973.94;;;11.51;56.38
4570;BME280;2297;51.442;6.996;2022-12-20T09:48:45;99980.94;;;11.52;56.32
4570;BME280;2297;51.442;6.996;2022-12-20T09:54:07;99986.31;;;11.19;57.87
4570;BME280;2297;51.442;6.996;2022-12-20T09:56:41;99986.09;;;11.26;58.03
4570;BME280;2297;51.442;6.996;2022-12-20T09:59:12;99979.78;;;11.62;57.07
4570;BME280;2297;51.442;6.996;2022-12-20T10:01:42;99979.78;;;11.62;56.73
4570;BME280;2297;51.442;6.996;2022-12-20T10:04:15;99971.50;;;11.44;57.27
4570;BME280;2297;51.442;6.996;2022-12-20T10:06:51;99972.94;;;11.55;57.03
4570;BME280;2297;51.442;6.996;2022-12-20T10:09:39;99975.41;;;11.31;57.64
4570;BME280;2297;51.442;6.996;2022-12-20T10:12:18;99975.81;;;11.47;57.53
4570;BME280;2297;51.442;6.996;2022-12-20T10:14:59;99979.88;;;11.59;57.40
4570;BME280;2297;51.442;6.996;2022-12-20T10:17:40;99972.81;;;11.29;57.90
4570;BME280;2297;51.442;6.996;2022-12-20T10:20:33;99962.53;;;11.19;58.27
4570;BME280;2297;51.442;6.996;2022-12-20T10:23:08;99958.38;;;11.40;57.51
4570;BME280;2297;51.442;6.996;2022-12-20T10:25:39;99936.72;;;11.57;57.18
4570;BME280;2297;51.442;6.996;2022-12-20T10:28:11;99943.59;;;11.91;56.26
4570;BME280;2297;51.442;6.996;2022-12-20T10:30:41;99946.84;;;11.42;57.50
4570;BME280;2297;51.442;6.996;2022-12-20T10:33:15;99929.38;;;11.67;56.73
4570;BME280;2297;51.442;6.996;2022-12-20T10:38:53;99929.06;;;11.47;57.23
4570;BME280;2297;51.442;6.996;2022-12-20T10:41:22;99932.59;;;11.18;57.79
4570;BME280;2297;51.442;6.996;2022-12-20T10:44:22;99919.63;;;11.40;57.54
4570;BME280;2297;51.442;6.996;2022-12-20T10:46:53;99922.94;;;11.75;56.69
4570;BME280;2297;51.442;6.996;2022-12-20T10:49:28;99911.69;;;11.69;56.33
4570;BME280;2297;51.442;6.996;2022-12-20T10:51:59;99908.66;;;12.08;55.52
4570;BME280;2297;51.442;6.996;2022-12-20T10:54:29;99906.03;;;12.06;56.03
4570;BME280;2297;51.442;6.996;2022-12-20T10:56:58;99907.56;;;12.13;56.04
4570;BME280;2297;51.442;6.996;2022-12-20T10:59:30;99914.50;;;12.18;56.13
4570;BME280;2297;51.442;6.996;2022-12-20T11:01:59;99904.41;;;12.02;56.52
4570;BME280;2297;51.442;6.996;2022-12-20T11:04:27;99895.44;;;11.79;57.19
4570;BME280;2297;51.442;6.996;2022-12-20T11:06:55;99896.22;;;11.56;57.43
4570;BME280;2297;51.442;6.996;2022-12-20T11:09:26;99893.41;;;11.88;56.80
4570;BME280;2297;51.442;6.996;2022-12-20T11:11:57;99898.69;;;11.89;56.67
4570;BME280;2297;51.442;6.996;2022-12-20T11:14:25;99882.97;;;11.56;57.16
4570;BME280;2297;51.442;6.996;2022-12-20T11:16:53;99881.97;;;11.60;57.23
4570;BME280;2297;51.442;6.996;2022-12-20T11:19:40;99877.09;;;11.46;57.56
4570;BME280;2297;51.442;6.996;2022-12-20T11:22:21;99871.63;;;11.53;57.28
4570;BME280;2297;51.442;6.996;2022-12-20T11:25:00;99909.50;;;11.81;56.21
4570;BME280;2297;51.442;6.996;2022-12-20T11:27:35;99865.31;;;11.84;56.17
4570;BME280;2297;51.442;6.996;2022-12-20T11:30:13;99873.56;;;11.74;56.07
4570;BME280;2297;51.442;6.996;2022-12-20T11:32:54;99861.66;;;11.61;56.42
4570;BME280;2297;51.442;6.996;2022-12-20T11:35:31;99861.06;;;11.79;56.11
4570;BME280;2297;51.442;6.996;2022-12-20T11:38:10;99859.44;;;11.75;56.08
4570;BME280;2297;51.442;6.996;2022-12-20T11:40:44;99870.44;;;11.63;56.76
4570;BME280;2297;51.442;6.996;2022-12-20T11:43:30;99862.34;;;11.94;55.79
4570;BME280;2297;51.442;6.996;2022-12-20T11:46:14;99870.19;;;11.69;57.10
4570;BME280;2297;51.442;6.996;2022-12-20T11:48:54;99856.47;;;11.85;56.49
4570;BME280;2297;51.442;6.996;2022-12-20T11:51:29;99863.50;;;11.59;57.95
4570;BME280;2297;51.442;6.996;2022-12-20T11:54:02;99858.22;;;11.59;57.78
4570;BME280;2297;51.442;6.996;2022-12-20T11:56:35;99842.34;;;11.59;57.57
4570;BME280;2297;51.442;6.996;2022-12-20T11:59:06;99838.06;;;11.81;56.91
4570;BME280;2297;51.442;6.996;2022-12-20T12:01:39;99835.22;;;11.61;57.03
4570;BME280;2297;51.442;6.996;2022-12-20T12:04:12;99842.25;;;11.62;56.81
4570;BME280;2297;51.442;6.996;2022-12-20T12:06:43;99846.50;;;11.66;56.50
4570;BME280;2297;51.442;6.996;2022-12-20T12:09:17;99843.56;;;11.75;56.26
4570;BME280;2297;51.442;6.996;2022-12-20T12:11:51;99845.41;;;11.73;56.14
4570;BME280;2297;51.442;6.996;2022-12-20T12:14:47;99828.72;;;11.71;56.25
4570;BME280;2297;51.442;6.996;2022-12-20T12:17:23;99832.78;;;11.81;55.72
4570;BME280;2297;51.442;6.996;2022-12-20T12:19:55;99830.34;;;11.75;56.44
4570;BME280;2297;51.442;6.996;2022-12-20T12:22:32;99833.69;;;11.54;56.46
4570;BME280;2297;51.442;6.996;2022-12-20T12:25:03;99834.34;;;11.60;56.57
4570;BME280;2297;51.442;6.996;2022-12-20T12:27:35;99832.38;;;11.40;56.94
4570;BME280;2297;51.442;6.996;2022-12-20T12:30:02;99840.41;;;11.64;56.37
4570;BME280;2297;51.442;6.996;2022-12-20T12:32:32;99822.41;;;11.75;55.79
4570;BME280;2297;51.442;6.996;2022-12-20T12:35:14;99830.94;;;11.57;56.10
4570;BME280;2297;51.442;6.996;2022-12-20T12:38:02;99820.03;;;11.93;55.50
4570;BME280;2297;51.442;6.996;2022-12-20T12:40:46;99825.34;;;11.93;55.18
4570;BME280;2297;51.442;6.996;2022-12-20T12:43:46;99832.03;;;12.03;54.59
4570;BME280;2297;51.442;6.996;2022-12-20T12:46:16;99824.53;;;11.91;54.37
4570;BME280;2297;51.442;6.996;2022-12-20T12:48:49;99832.16;;;12.00;54.57
4570;BME280;2297;51.442;6.996;2022-12-20T12:51:26;99825.44;;;11.90;55.35
4570;BME280;2297;51.442;6.996;2022-12-20T12:54:02;99829.00;;;11.89;55.25
4570;BME280;2297;51.442;6.996;2022-12-20T12:56:40;99831.66;;;11.62;56.96
4570;BME280;2297;51.442;6.996;2022-12-20T13:02:33;99826.22;;;11.67;58.75
4570;BME280;2297;51.442;6.996;2022-12-20T13:05:30;99840.63;;;11.58;61.06
4570;BME280;2297;51.442;6.996;2022-12-20T13:07:57;99835.00;;;11.40;62.47
4570;BME280;2297;51.442;6.996;2022-12-20T13:13:32;99840.16;;;10.85;66.45
4570;BME280;2297;51.442;6.996;2022-12-20T13:16:10;99849.13;;;11.11;65.48
4570;BME280;2297;51.442;6.996;2022-12-20T13:18:38;99849.50;;;10.97;65.98
4570;BME280;2297;51.442;6.996;2022-12-20T13:21:35;99846.81;;;10.98;66.36
4570;BME280;2297;51.442;6.996;2022-12-20T13:24:36;99841.00;;;11.17;65.61
4570;BME280;2297;51.442;6.996;2022-12-20T13:27:15;99827.03;;;11.13;66.18
4570;BME280;2297;51.442;6.996;2022-12-20T13:29:56;99820.88;;;11.13;66.43
4570;BME280;2297;51.442;6.996;2022-12-20T13:32:54;99831.09;;;11.24;66.34
4570;BME280;2297;51.442;6.996;2022-12-20T13:35:43;99827.97;;;11.09;67.16
4570;BME280;2297;51.442;6.996;2022-12-20T13:38:35;99832.28;;;10.84;67.72
4570;BME280;2297;51.442;6.996;2022-12-20T13:41:10;99834.03;;;10.85;67.80
4570;BME280;2297;51.442;6.996;2022-12-20T13:43:41;99828.38;;;10.97;67.68
4570;BME280;2297;51.442;6.996;2022-12-20T13:46:18;99839.72;;;11.01;67.54
4570;BME280;2297;51.442;6.996;2022-12-20T13:48:50;99841.84;;;10.88;67.68
4570;BME280;2297;51.442;6.996;2022-12-20T13:51:20;99850.34;;;10.99;67.39
4570;BME280;2297;51.442;6.996;2022-12-20T13:53:52;99851.16;;;10.70;68.32
4570;BME280;2297;51.442;6.996;2022-12-20T13:56:33;99846.81;;;10.98;67.85
4570;BME280;2297;51.442;6.996;2022-12-20T13:59:04;99844.13;;;11.00;67.38